sensor_id;sensor_type;location;lat;lon;timestamp;P1;durP1;ratioP1;P2;durP2;ratioP2
17796;SDS011;55596;53.554;9.916;2023-05-09T00:00:35;4.60;;;1.77;;
17796;SDS011;55596;53.554;9.916;2023-05-09T00:03:03;2.00;;;1.80;;
17796;SDS011;55596;53.554;9.916;2023-05-09T00:05:30;4.03;;;2.20;;
17796;SDS011;55596;53.554;9.916;2023-05-09T00:07:58;4.77;;;1.73;;
17796;SDS011;55596;53.554;9.916;2023-05-09T00:10:27;5.40;;;1.90;;
17796;SDS011;55596;53.554;9.916;2023-05-09T00:12:55;4.67;;;1.60;;
17796;SDS011;55596;53.554;9.916;2023-05-09T00:15:23;4.67;;;1.80;;
17796;SDS011;55596;53.554;9.916;2023-05-09T00:17:50;5.20;;;1.70;;
17796;SDS011;55596;53.554;9.916;2023-05-09T00:20:18;4.77;;;2.20;;
17796;SDS011;55596;53.554;9.916;2023-05-09T00:22:45;3.00;;;1.87;;
17796;SDS011;55596;53.554;9.916;2023-05-09T00:25:13;5.10;;;1.80;;
17796;SDS011;55596;53.554;9.916;2023-05-09T00:27:42;5.07;;;2.00;;
17796;SDS011;55596;53.554;9.916;2023-05-09T00:30:09;5.53;;;1.67;;
17796;SDS011;55596;53.554;9.916;2023-05-09T00:32:37;7.00;;;1.70;;
17796;SDS011;55596;53.554;9.916;2023-05-09T00:35:06;3.93;;;1.80;;
17796;SDS011;55596;53.554;9.916;2023-05-09T00:37:33;2.50;;;1.57;;
17796;SDS011;55596;53.554;9.916;2023-05-09T00:40:01;2.23;;;1.50;;
17796;SDS011;55596;53.554;9.916;2023-05-09T00:42:29;3.90;;;1.67;;
17796;SDS011;55596;53.554;9.916;2023-05-09T00:44:58;3.30;;;1.73;;
17796;SDS011;55596;53.554;9.916;2023-05-09T00:47:26;4.70;;;1.73;;
17796;SDS011;55596;53.554;9.916;2023-05-09T00:49:54;3.60;;;1.70;;
17796;SDS011;55596;53.554;9.916;2023-05-09T00:52:22;3.77;;;1.57;;
17796;SDS011;55596;53.554;9.916;2023-05-09T00:54:50;2.40;;;1.90;;
17796;SDS011;55596;53.554;9.916;2023-05-09T00:57:17;2.87;;;1.70;;
17796;SDS011;55596;53.554;9.916;2023-05-09T00:59:44;3.10;;;1.80;;
17796;SDS011;55596;53.554;9.916;2023-05-09T01:02:13;3.63;;;1.70;;
17796;SDS011;55596;53.554;9.916;2023-05-09T01:04:41;3.83;;;2.13;;
17796;SDS011;55596;53.554;9.916;2023-05-09T01:07:09;3.90;;;1.83;;
17796;SDS011;55596;53.554;9.916;2023-05-09T01:09:39;2.83;;;1.97;;
17796;SDS011;55596;53.554;9.916;2023-05-09T01:12:10;2.23;;;1.40;;
17796;SDS011;55596;53.554;9.916;2023-05-09T01:14:41;8.40;;;1.90;;
17796;SDS011;55596;53.554;9.916;2023-05-09T01:17:10;3.17;;;1.93;;
17796;SDS011;55596;53.554;9.916;2023-05-09T01:19:45;7.53;;;1.70;;
17796;SDS011;55596;53.554;9.916;2023-05-09T01:25:07;3.57;;;1.80;;
17796;SDS011;55596;53.554;9.916;2023-05-09T01:27:41;4.53;;;1.83;;
17796;SDS011;55596;53.554;9.916;2023-05-09T01:30:18;6.57;;;1.87;;
17796;SDS011;55596;53.554;9.916;2023-05-09T01:32:49;3.73;;;1.90;;
17796;SDS011;55596;53.554;9.916;2023-05-09T01:35:20;2.37;;;2.00;;
17796;SDS011;55596;53.554;9.916;2023-05-09T01:37:48;2.87;;;2.13;;
17796;SDS011;55596;53.554;9.916;2023-05-09T01:40:20;4.33;;;2.30;;
17796;SDS011;55596;53.554;9.916;2023-05-09T01:42:53;5.10;;;1.90;;
17796;SDS011;55596;53.554;9.916;2023-05-09T01:45:27;4.63;;;1.90;;
17796;SDS011;55596;53.554;9.916;2023-05-09T01:48:04;2.73;;;2.00;;
17796;SDS011;55596;53.554;9.916;2023-05-09T01:50:33;5.03;;;2.40;;
17796;SDS011;55596;53.554;9.916;2023-05-09T01:53:01;7.13;;;2.80;;
17796;SDS011;55596;53.554;9.916;2023-05-09T01:55:35;6.33;;;2.10;;
17796;SDS011;55596;53.554;9.916;2023-05-09T01:58:08;3.33;;;2.20;;
17796;SDS011;55596;53.554;9.916;2023-05-09T02:00:37;4.63;;;2.40;;
17796;SDS011;55596;53.554;9.916;2023-05-09T02:03:04;3.73;;;2.30;;
17796;SDS011;55596;53.554;9.916;2023-05-09T02:05:31;6.17;;;2.30;;
17796;SDS011;55596;53.554;9.916;2023-05-09T02:07:59;3.70;;;1.93;;
17796;SDS011;55596;53.554;9.916;2023-05-09T02:10:26;5.43;;;2.00;;
17796;SDS011;55596;53.554;9.916;2023-05-09T02:12:54;5.43;;;2.67;;
17796;SDS011;55596;53.554;9.916;2023-05-09T02:15:22;4.67;;;2.40;;
17796;SDS011;55596;53.554;9.916;2023-05-09T02:17:52;3.10;;;2.33;;
17796;SDS011;55596;53.554;9.916;2023-05-09T02:20:22;2.77;;;2.40;;
17796;SDS011;55596;53.554;9.916;2023-05-09T02:22:50;4.53;;;2.30;;
17796;SDS011;55596;53.554;9.916;2023-05-09T02:25:20;3.27;;;2.40;;
17796;SDS011;55596;53.554;9.916;2023-05-09T02:27:51;4.97;;;2.57;;
17796;SDS011;55596;53.554;9.916;2023-05-09T02:30:22;4.23;;;2.37;;
17796;SDS011;55596;53.554;9.916;2023-05-09T02:32:52;4.17;;;2.77;;
17796;SDS011;55596;53.554;9.916;2023-05-09T02:35:23;3.50;;;2.23;;
17796;SDS011;55596;53.554;9.916;2023-05-09T02:37:55;2.90;;;2.30;;
17796;SDS011;55596;53.554;9.916;2023-05-09T02:40:23;3.27;;;2.27;;
17796;SDS011;55596;53.554;9.916;2023-05-09T02:46:15;2.63;;;2.13;;
17796;SDS011;55596;53.554;9.916;2023-05-09T02:48:51;3.87;;;2.67;;
17796;SDS011;55596;53.554;9.916;2023-05-09T02:51:18;5.57;;;2.60;;
17796;SDS011;55596;53.554;9.916;2023-05-09T02:53:46;3.60;;;2.67;;
17796;SDS011;55596;53.554;9.916;2023-05-09T02:56:13;7.10;;;2.60;;
17796;SDS011;55596;53.554;9.916;2023-05-09T02:58:40;6.90;;;2.50;;
17796;SDS011;55596;53.554;9.916;2023-05-09T03:01:14;5.03;;;3.10;;
17796;SDS011;55596;53.554;9.916;2023-05-09T03:03:42;12.60;;;2.93;;
17796;SDS011;55596;53.554;9.916;2023-05-09T03:06:11;3.00;;;2.40;;
17796;SDS011;55596;53.554;9.916;2023-05-09T03:08:42;3.20;;;2.90;;
17796;SDS011;55596;53.554;9.916;2023-05-09T03:11:12;5.63;;;3.10;;
17796;SDS011;55596;53.554;9.916;2023-05-09T03:13:44;9.90;;;3.00;;
17796;SDS011;55596;53.554;9.916;2023-05-09T03:16:12;5.60;;;2.70;;
17796;SDS011;55596;53.554;9.916;2023-05-09T03:18:46;4.63;;;3.00;;
17796;SDS011;55596;53.554;9.916;2023-05-09T03:21:22;3.50;;;2.70;;
17796;SDS011;55596;53.554;9.916;2023-05-09T03:23:51;5.17;;;2.97;;
17796;SDS011;55596;53.554;9.916;2023-05-09T03:26:18;4.00;;;2.83;;
17796;SDS011;55596;53.554;9.916;2023-05-09T03:31:41;4.97;;;3.33;;
17796;SDS011;55596;53.554;9.916;2023-05-09T03:34:08;6.70;;;3.37;;
17796;SDS011;55596;53.554;9.916;2023-05-09T03:37:02;7.47;;;3.00;;
17796;SDS011;55596;53.554;9.916;2023-05-09T03:39:29;5.10;;;3.07;;
17796;SDS011;55596;53.554;9.916;2023-05-09T03:41:57;3.93;;;3.03;;
17796;SDS011;55596;53.554;9.916;2023-05-09T03:44:24;5.83;;;3.10;;
17796;SDS011;55596;53.554;9.916;2023-05-09T03:46:54;6.00;;;3.10;;
17796;SDS011;55596;53.554;9.916;2023-05-09T03:49:22;4.13;;;3.03;;
17796;SDS011;55596;53.554;9.916;2023-05-09T03:51:49;6.30;;;2.90;;
17796;SDS011;55596;53.554;9.916;2023-05-09T03:54:19;5.57;;;3.07;;
17796;SDS011;55596;53.554;9.916;2023-05-09T03:56:50;4.60;;;3.00;;
17796;SDS011;55596;53.554;9.916;2023-05-09T03:59:18;5.33;;;3.37;;
17796;SDS011;55596;53.554;9.916;2023-05-09T04:01:46;6.70;;;3.23;;
17796;SDS011;55596;53.554;9.916;2023-05-09T04:04:13;6.07;;;3.90;;
17796;SDS011;55596;53.554;9.916;2023-05-09T04:06:43;10.70;;;3.53;;
17796;SDS011;55596;53.554;9.916;2023-05-09T04:09:10;5.53;;;3.33;;
17796;SDS011;55596;53.554;9.916;2023-05-09T04:11:45;5.27;;;3.60;;
17796;SDS011;55596;53.554;9.916;2023-05-09T04:14:13;4.60;;;3.40;;
17796;SDS011;55596;53.554;9.916;2023-05-09T04:16:40;6.00;;;3.17;;
17796;SDS011;55596;53.554;9.916;2023-05-09T04:19:08;5.63;;;3.37;;
17796;SDS011;55596;53.554;9.916;2023-05-09T04:21:37;6.50;;;3.47;;
17796;SDS011;55596;53.554;9.916;2023-05-09T04:24:04;3.60;;;3.17;;
17796;SDS011;55596;53.554;9.916;2023-05-09T04:26:31;5.47;;;3.30;;
17796;SDS011;55596;53.554;9.916;2023-05-09T04:29:03;7.10;;;3.43;;
17796;SDS011;55596;53.554;9.916;2023-05-09T04:31:31;6.07;;;3.53;;
17796;SDS011;55596;53.554;9.916;2023-05-09T04:33:58;4.57;;;3.30;;
17796;SDS011;55596;53.554;9.916;2023-05-09T04:36:28;7.13;;;3.47;;
17796;SDS011;55596;53.554;9.916;2023-05-09T04:38:55;7.87;;;3.70;;
17796;SDS011;55596;53.554;9.916;2023-05-09T04:41:25;6.80;;;3.20;;
17796;SDS011;55596;53.554;9.916;2023-05-09T04:43:52;4.87;;;3.47;;
17796;SDS011;55596;53.554;9.916;2023-05-09T04:46:21;5.87;;;3.50;;
17796;SDS011;55596;53.554;9.916;2023-05-09T04:48:48;5.50;;;3.57;;
17796;SDS011;55596;53.554;9.916;2023-05-09T04:51:15;7.00;;;3.70;;
17796;SDS011;55596;53.554;9.916;2023-05-09T04:53:43;7.27;;;3.80;;
17796;SDS011;55596;53.554;9.916;2023-05-09T04:56:11;7.83;;;3.87;;
17796;SDS011;55596;53.554;9.916;2023-05-09T04:58:49;7.87;;;3.90;;
17796;SDS011;55596;53.554;9.916;2023-05-09T05:01:16;4.67;;;3.13;;
17796;SDS011;55596;53.554;9.916;2023-05-09T05:03:48;5.47;;;3.30;;
17796;SDS011;55596;53.554;9.916;2023-05-09T05:09:09;4.73;;;3.47;;
17796;SDS011;55596;53.554;9.916;2023-05-09T05:11:45;5.20;;;3.57;;
17796;SDS011;55596;53.554;9.916;2023-05-09T05:14:26;5.97;;;3.83;;
17796;SDS011;55596;53.554;9.916;2023-05-09T05:16:55;7.83;;;3.87;;
17796;SDS011;55596;53.554;9.916;2023-05-09T05:19:26;6.17;;;3.60;;
17796;SDS011;55596;53.554;9.916;2023-05-09T05:21:58;5.90;;;4.00;;
17796;SDS011;55596;53.554;9.916;2023-05-09T05:24:25;8.83;;;3.90;;
17796;SDS011;55596;53.554;9.916;2023-05-09T05:26:53;4.40;;;3.80;;
17796;SDS011;55596;53.554;9.916;2023-05-09T05:29:23;8.33;;;3.90;;
17796;SDS011;55596;53.554;9.916;2023-05-09T05:31:53;4.70;;;4.03;;
17796;SDS011;55596;53.554;9.916;2023-05-09T05:34:27;8.27;;;4.00;;
17796;SDS011;55596;53.554;9.916;2023-05-09T05:36:54;5.87;;;3.87;;
17796;SDS011;55596;53.554;9.916;2023-05-09T05:39:32;5.57;;;4.00;;
17796;SDS011;55596;53.554;9.916;2023-05-09T05:42:00;8.77;;;3.83;;
17796;SDS011;55596;53.554;9.916;2023-05-09T05:44:31;6.17;;;3.73;;
17796;SDS011;55596;53.554;9.916;2023-05-09T05:46:58;6.87;;;3.80;;
17796;SDS011;55596;53.554;9.916;2023-05-09T05:49:30;8.23;;;3.70;;
17796;SDS011;55596;53.554;9.916;2023-05-09T05:51:58;5.37;;;3.60;;
17796;SDS011;55596;53.554;9.916;2023-05-09T05:54:26;6.00;;;4.17;;
17796;SDS011;55596;53.554;9.916;2023-05-09T05:56:53;5.00;;;4.17;;
17796;SDS011;55596;53.554;9.916;2023-05-09T05:59:21;6.60;;;4.03;;
17796;SDS011;55596;53.554;9.916;2023-05-09T06:01:48;7.60;;;4.53;;
17796;SDS011;55596;53.554;9.916;2023-05-09T06:04:15;13.93;;;3.97;;
17796;SDS011;55596;53.554;9.916;2023-05-09T06:06:44;8.10;;;4.20;;
17796;SDS011;55596;53.554;9.916;2023-05-09T06:09:11;5.50;;;3.70;;
17796;SDS011;55596;53.554;9.916;2023-05-09T06:11:38;5.77;;;3.67;;
17796;SDS011;55596;53.554;9.916;2023-05-09T06:14:05;6.43;;;3.90;;
17796;SDS011;55596;53.554;9.916;2023-05-09T06:16:32;7.23;;;4.40;;
17796;SDS011;55596;53.554;9.916;2023-05-09T06:18:59;7.27;;;3.97;;
17796;SDS011;55596;53.554;9.916;2023-05-09T06:21:27;5.33;;;4.07;;
17796;SDS011;55596;53.554;9.916;2023-05-09T06:23:55;6.17;;;4.07;;
17796;SDS011;55596;53.554;9.916;2023-05-09T06:26:22;7.03;;;4.30;;
17796;SDS011;55596;53.554;9.916;2023-05-09T06:28:50;5.10;;;3.80;;
17796;SDS011;55596;53.554;9.916;2023-05-09T06:31:17;8.27;;;4.40;;
17796;SDS011;55596;53.554;9.916;2023-05-09T06:33:44;7.00;;;4.37;;
17796;SDS011;55596;53.554;9.916;2023-05-09T06:36:11;9.53;;;4.20;;
17796;SDS011;55596;53.554;9.916;2023-05-09T06:38:39;10.60;;;4.00;;
17796;SDS011;55596;53.554;9.916;2023-05-09T06:41:08;9.17;;;4.07;;
17796;SDS011;55596;53.554;9.916;2023-05-09T06:43:36;6.57;;;3.90;;
17796;SDS011;55596;53.554;9.916;2023-05-09T06:46:03;4.30;;;3.90;;
17796;SDS011;55596;53.554;9.916;2023-05-09T06:51:34;9.67;;;4.17;;
17796;SDS011;55596;53.554;9.916;2023-05-09T06:54:01;6.53;;;3.43;;
17796;SDS011;55596;53.554;9.916;2023-05-09T06:56:30;4.77;;;4.00;;
17796;SDS011;55596;53.554;9.916;2023-05-09T07:02:01;7.67;;;4.13;;
17796;SDS011;55596;53.554;9.916;2023-05-09T07:04:28;9.57;;;3.83;;
17796;SDS011;55596;53.554;9.916;2023-05-09T07:06:59;5.47;;;3.80;;
17796;SDS011;55596;53.554;9.916;2023-05-09T07:09:27;8.43;;;3.77;;
17796;SDS011;55596;53.554;9.916;2023-05-09T07:12:03;9.57;;;3.67;;
17796;SDS011;55596;53.554;9.916;2023-05-09T07:14:30;11.53;;;3.97;;
17796;SDS011;55596;53.554;9.916;2023-05-09T07:16:57;5.13;;;3.70;;
17796;SDS011;55596;53.554;9.916;2023-05-09T07:19:27;5.80;;;3.77;;
17796;SDS011;55596;53.554;9.916;2023-05-09T07:22:00;4.93;;;4.43;;
17796;SDS011;55596;53.554;9.916;2023-05-09T07:24:27;4.67;;;3.77;;
17796;SDS011;55596;53.554;9.916;2023-05-09T07:26:56;5.50;;;4.00;;
17796;SDS011;55596;53.554;9.916;2023-05-09T07:29:29;6.53;;;3.90;;
17796;SDS011;55596;53.554;9.916;2023-05-09T07:31:57;6.00;;;3.60;;
17796;SDS011;55596;53.554;9.916;2023-05-09T07:34:24;9.23;;;3.37;;
17796;SDS011;55596;53.554;9.916;2023-05-09T07:36:52;4.63;;;3.40;;
17796;SDS011;55596;53.554;9.916;2023-05-09T07:39:24;4.33;;;3.20;;
17796;SDS011;55596;53.554;9.916;2023-05-09T07:41:52;11.20;;;3.63;;
17796;SDS011;55596;53.554;9.916;2023-05-09T07:44:22;6.80;;;3.83;;
17796;SDS011;55596;53.554;9.916;2023-05-09T07:46:50;4.47;;;3.50;;
17796;SDS011;55596;53.554;9.916;2023-05-09T07:49:22;7.87;;;3.60;;
17796;SDS011;55596;53.554;9.916;2023-05-09T07:51:49;7.57;;;3.30;;
17796;SDS011;55596;53.554;9.916;2023-05-09T07:54:19;6.33;;;3.50;;
17796;SDS011;55596;53.554;9.916;2023-05-09T07:56:46;5.00;;;3.50;;
17796;SDS011;55596;53.554;9.916;2023-05-09T07:59:14;4.30;;;3.23;;
17796;SDS011;55596;53.554;9.916;2023-05-09T08:01:44;4.87;;;3.30;;
17796;SDS011;55596;53.554;9.916;2023-05-09T08:04:16;6.10;;;2.93;;
17796;SDS011;55596;53.554;9.916;2023-05-09T08:06:43;6.60;;;3.43;;
17796;SDS011;55596;53.554;9.916;2023-05-09T08:09:13;11.67;;;3.67;;
17796;SDS011;55596;53.554;9.916;2023-05-09T08:11:40;5.40;;;3.47;;
17796;SDS011;55596;53.554;9.916;2023-05-09T08:14:07;4.50;;;3.27;;
17796;SDS011;55596;53.554;9.916;2023-05-09T08:16:37;8.13;;;3.50;;
17796;SDS011;55596;53.554;9.916;2023-05-09T08:19:15;5.93;;;3.50;;
17796;SDS011;55596;53.554;9.916;2023-05-09T08:21:42;6.30;;;3.20;;
17796;SDS011;55596;53.554;9.916;2023-05-09T08:24:09;6.13;;;3.23;;
17796;SDS011;55596;53.554;9.916;2023-05-09T08:26:38;3.37;;;3.00;;
17796;SDS011;55596;53.554;9.916;2023-05-09T08:29:09;5.10;;;2.90;;
17796;SDS011;55596;53.554;9.916;2023-05-09T08:31:37;10.13;;;3.10;;
17796;SDS011;55596;53.554;9.916;2023-05-09T08:34:04;5.93;;;2.93;;
17796;SDS011;55596;53.554;9.916;2023-05-09T08:36:35;8.00;;;3.43;;
17796;SDS011;55596;53.554;9.916;2023-05-09T08:39:03;13.47;;;3.23;;
17796;SDS011;55596;53.554;9.916;2023-05-09T08:41:30;6.43;;;3.43;;
17796;SDS011;55596;53.554;9.916;2023-05-09T08:44:04;8.67;;;2.77;;
17796;SDS011;55596;53.554;9.916;2023-05-09T08:46:33;6.97;;;3.10;;
17796;SDS011;55596;53.554;9.916;2023-05-09T08:49:03;5.93;;;2.90;;
17796;SDS011;55596;53.554;9.916;2023-05-09T08:51:32;4.13;;;2.77;;
17796;SDS011;55596;53.554;9.916;2023-05-09T08:54:01;3.60;;;2.70;;
17796;SDS011;55596;53.554;9.916;2023-05-09T08:56:31;5.67;;;2.57;;
17796;SDS011;55596;53.554;9.916;2023-05-09T08:59:04;4.00;;;2.73;;
17796;SDS011;55596;53.554;9.916;2023-05-09T09:01:31;5.47;;;2.73;;
17796;SDS011;55596;53.554;9.916;2023-05-09T09:03:59;6.70;;;3.10;;
17796;SDS011;55596;53.554;9.916;2023-05-09T09:06:27;3.87;;;2.83;;
17796;SDS011;55596;53.554;9.916;2023-05-09T09:08:57;7.37;;;2.67;;
17796;SDS011;55596;53.554;9.916;2023-05-09T09:11:28;4.20;;;2.40;;
17796;SDS011;55596;53.554;9.916;2023-05-09T09:13:57;7.30;;;2.33;;
17796;SDS011;55596;53.554;9.916;2023-05-09T09:16:28;6.50;;;2.50;;
17796;SDS011;55596;53.554;9.916;2023-05-09T09:18:56;5.10;;;2.60;;
17796;SDS011;55596;53.554;9.916;2023-05-09T09:21:25;8.13;;;2.73;;
17796;SDS011;55596;53.554;9.916;2023-05-09T09:23:53;7.73;;;3.00;;
17796;SDS011;55596;53.554;9.916;2023-05-09T09:26:21;5.37;;;3.00;;
17796;SDS011;55596;53.554;9.916;2023-05-09T09:28:51;2.80;;;2.50;;
17796;SDS011;55596;53.554;9.916;2023-05-09T09:31:21;7.93;;;2.63;;
17796;SDS011;55596;53.554;9.916;2023-05-09T09:33:49;5.77;;;2.63;;
17796;SDS011;55596;53.554;9.916;2023-05-09T09:36:25;3.83;;;2.20;;
17796;SDS011;55596;53.554;9.916;2023-05-09T09:38:55;5.67;;;2.27;;
17796;SDS011;55596;53.554;9.916;2023-05-09T09:41:28;4.67;;;2.50;;
17796;SDS011;55596;53.554;9.916;2023-05-09T09:47:01;4.70;;;2.60;;
17796;SDS011;55596;53.554;9.916;2023-05-09T09:49:29;8.67;;;2.43;;
17796;SDS011;55596;53.554;9.916;2023-05-09T09:51:58;4.80;;;2.47;;
17796;SDS011;55596;53.554;9.916;2023-05-09T09:54:25;5.77;;;2.43;;
17796;SDS011;55596;53.554;9.916;2023-05-09T09:57:02;5.23;;;2.33;;
17796;SDS011;55596;53.554;9.916;2023-05-09T09:59:29;3.33;;;2.40;;
17796;SDS011;55596;53.554;9.916;2023-05-09T10:01:57;7.10;;;2.70;;
17796;SDS011;55596;53.554;9.916;2023-05-09T10:04:31;5.43;;;2.20;;
17796;SDS011;55596;53.554;9.916;2023-05-09T10:06:59;4.47;;;2.40;;
17796;SDS011;55596;53.554;9.916;2023-05-09T10:12:10;2.78;;;1.88;;
17796;SDS011;55596;53.554;9.916;2023-05-09T10:17:25;6.00;;;2.50;;
17796;SDS011;55596;53.554;9.916;2023-05-09T10:19:57;11.90;;;2.60;;
17796;SDS011;55596;53.554;9.916;2023-05-09T10:22:29;3.25;;;2.08;;
17796;SDS011;55596;53.554;9.916;2023-05-09T10:25:00;5.60;;;2.10;;
17796;SDS011;55596;53.554;9.916;2023-05-09T10:27:29;8.70;;;2.42;;
17796;SDS011;55596;53.554;9.916;2023-05-09T10:30:00;4.72;;;1.90;;
17796;SDS011;55596;53.554;9.916;2023-05-09T10:32:30;4.55;;;2.15;;
17796;SDS011;55596;53.554;9.916;2023-05-09T10:35:03;6.43;;;2.03;;
17796;SDS011;55596;53.554;9.916;2023-05-09T10:37:31;7.03;;;2.38;;
17796;SDS011;55596;53.554;9.916;2023-05-09T10:40:02;6.28;;;2.28;;
17796;SDS011;55596;53.554;9.916;2023-05-09T10:42:30;3.33;;;2.10;;
17796;SDS011;55596;53.554;9.916;2023-05-09T10:44:58;4.55;;;2.05;;
17796;SDS011;55596;53.554;9.916;2023-05-09T10:47:26;7.93;;;2.60;;
17796;SDS011;55596;53.554;9.916;2023-05-09T10:49:59;7.82;;;2.38;;
17796;SDS011;55596;53.554;9.916;2023-05-09T10:52:32;3.13;;;2.17;;
17796;SDS011;55596;53.554;9.916;2023-05-09T10:55:03;5.18;;;2.00;;
17796;SDS011;55596;53.554;9.916;2023-05-09T10:57:31;2.40;;;1.95;;
17796;SDS011;55596;53.554;9.916;2023-05-09T11:00:03;5.03;;;2.35;;
17796;SDS011;55596;53.554;9.916;2023-05-09T11:02:35;6.43;;;2.53;;
17796;SDS011;55596;53.554;9.916;2023-05-09T11:05:12;4.30;;;2.15;;
17796;SDS011;55596;53.554;9.916;2023-05-09T11:07:44;4.90;;;2.10;;
17796;SDS011;55596;53.554;9.916;2023-05-09T11:10:13;4.57;;;2.08;;
17796;SDS011;55596;53.554;9.916;2023-05-09T11:12:57;6.95;;;1.90;;
17796;SDS011;55596;53.554;9.916;2023-05-09T11:15:25;2.30;;;2.08;;
17796;SDS011;55596;53.554;9.916;2023-05-09T11:18:03;4.35;;;2.13;;
17796;SDS011;55596;53.554;9.916;2023-05-09T11:20:32;4.28;;;2.40;;
17796;SDS011;55596;53.554;9.916;2023-05-09T11:23:01;3.67;;;2.35;;
17796;SDS011;55596;53.554;9.916;2023-05-09T11:25:31;12.52;;;2.35;;
17796;SDS011;55596;53.554;9.916;2023-05-09T11:28:00;6.43;;;2.20;;
17796;SDS011;55596;53.554;9.916;2023-05-09T11:30:35;6.40;;;2.13;;
17796;SDS011;55596;53.554;9.916;2023-05-09T11:33:06;5.25;;;2.38;;
17796;SDS011;55596;53.554;9.916;2023-05-09T11:38:41;5.40;;;2.08;;
17796;SDS011;55596;53.554;9.916;2023-05-09T11:41:08;3.17;;;2.00;;
17796;SDS011;55596;53.554;9.916;2023-05-09T11:43:35;7.65;;;2.15;;
17796;SDS011;55596;53.554;9.916;2023-05-09T11:46:03;3.72;;;2.22;;
17796;SDS011;55596;53.554;9.916;2023-05-09T11:48:38;8.88;;;1.77;;
17796;SDS011;55596;53.554;9.916;2023-05-09T11:51:13;10.35;;;2.20;;
17796;SDS011;55596;53.554;9.916;2023-05-09T11:53:45;4.43;;;1.88;;
17796;SDS011;55596;53.554;9.916;2023-05-09T11:56:15;4.43;;;1.98;;
17796;SDS011;55596;53.554;9.916;2023-05-09T11:58:43;4.47;;;2.22;;
17796;SDS011;55596;53.554;9.916;2023-05-09T12:01:10;4.10;;;1.85;;
17796;SDS011;55596;53.554;9.916;2023-05-09T12:03:42;6.57;;;2.38;;
17796;SDS011;55596;53.554;9.916;2023-05-09T12:06:21;5.07;;;1.98;;
17796;SDS011;55596;53.554;9.916;2023-05-09T12:08:53;5.90;;;1.60;;
17796;SDS011;55596;53.554;9.916;2023-05-09T12:11:21;6.40;;;2.33;;
17796;SDS011;55596;53.554;9.916;2023-05-09T12:13:49;6.78;;;1.98;;
17796;SDS011;55596;53.554;9.916;2023-05-09T12:16:17;3.85;;;1.80;;
17796;SDS011;55596;53.554;9.916;2023-05-09T12:18:47;7.47;;;2.03;;
17796;SDS011;55596;53.554;9.916;2023-05-09T12:21:17;7.22;;;2.10;;
17796;SDS011;55596;53.554;9.916;2023-05-09T12:23:45;18.20;;;3.10;;
17796;SDS011;55596;53.554;9.916;2023-05-09T12:26:14;11.25;;;5.45;;
17796;SDS011;55596;53.554;9.916;2023-05-09T12:28:41;15.60;;;6.25;;
17796;SDS011;55596;53.554;9.916;2023-05-09T12:31:10;17.73;;;6.18;;
17796;SDS011;55596;53.554;9.916;2023-05-09T12:33:37;9.68;;;6.50;;
17796;SDS011;55596;53.554;9.916;2023-05-09T12:36:06;9.02;;;6.50;;
17796;SDS011;55596;53.554;9.916;2023-05-09T12:38:34;25.13;;;11.10;;
17796;SDS011;55596;53.554;9.916;2023-05-09T12:41:02;16.38;;;11.13;;
17796;SDS011;55596;53.554;9.916;2023-05-09T12:43:32;19.08;;;10.82;;
17796;SDS011;55596;53.554;9.916;2023-05-09T12:46:01;17.88;;;7.38;;
17796;SDS011;55596;53.554;9.916;2023-05-09T12:48:33;7.57;;;5.85;;
17796;SDS011;55596;53.554;9.916;2023-05-09T12:51:08;12.80;;;5.63;;
17796;SDS011;55596;53.554;9.916;2023-05-09T12:53:36;12.95;;;5.78;;
17796;SDS011;55596;53.554;9.916;2023-05-09T12:56:04;10.98;;;5.38;;
17796;SDS011;55596;53.554;9.916;2023-05-09T12:58:38;7.57;;;3.75;;
17796;SDS011;55596;53.554;9.916;2023-05-09T13:01:08;8.48;;;3.15;;
17796;SDS011;55596;53.554;9.916;2023-05-09T13:03:38;5.93;;;3.00;;
17796;SDS011;55596;53.554;9.916;2023-05-09T13:06:10;7.80;;;2.58;;
17796;SDS011;55596;53.554;9.916;2023-05-09T13:08:38;13.07;;;2.58;;
17796;SDS011;55596;53.554;9.916;2023-05-09T13:11:06;8.23;;;2.58;;
17796;SDS011;55596;53.554;9.916;2023-05-09T13:13:36;8.00;;;2.47;;
17796;SDS011;55596;53.554;9.916;2023-05-09T13:16:06;2.85;;;1.80;;
17796;SDS011;55596;53.554;9.916;2023-05-09T13:18:36;11.55;;;2.47;;
17796;SDS011;55596;53.554;9.916;2023-05-09T13:21:03;5.28;;;2.03;;
17796;SDS011;55596;53.554;9.916;2023-05-09T13:23:31;5.95;;;2.30;;
17796;SDS011;55596;53.554;9.916;2023-05-09T13:26:01;8.90;;;2.03;;
17796;SDS011;55596;53.554;9.916;2023-05-09T13:28:28;4.35;;;2.25;;
17796;SDS011;55596;53.554;9.916;2023-05-09T13:30:58;3.90;;;1.85;;
17796;SDS011;55596;53.554;9.916;2023-05-09T13:33:31;9.32;;;1.98;;
17796;SDS011;55596;53.554;9.916;2023-05-09T13:35:59;5.03;;;2.15;;
17796;SDS011;55596;53.554;9.916;2023-05-09T13:38:33;7.38;;;1.60;;
17796;SDS011;55596;53.554;9.916;2023-05-09T13:41:04;3.50;;;1.60;;
17796;SDS011;55596;53.554;9.916;2023-05-09T13:43:35;3.35;;;1.80;;
17796;SDS011;55596;53.554;9.916;2023-05-09T13:46:10;2.92;;;1.77;;
17796;SDS011;55596;53.554;9.916;2023-05-09T13:48:38;2.67;;;1.83;;
17796;SDS011;55596;53.554;9.916;2023-05-09T13:51:08;4.07;;;1.70;;
17796;SDS011;55596;53.554;9.916;2023-05-09T13:53:35;10.38;;;2.13;;
17796;SDS011;55596;53.554;9.916;2023-05-09T13:56:05;3.25;;;1.95;;
17796;SDS011;55596;53.554;9.916;2023-05-09T13:58:33;5.55;;;1.90;;
17796;SDS011;55596;53.554;9.916;2023-05-09T14:01:01;11.57;;;1.92;;
17796;SDS011;55596;53.554;9.916;2023-05-09T14:03:28;5.40;;;2.00;;
17796;SDS011;55596;53.554;9.916;2023-05-09T14:05:58;8.68;;;2.05;;
17796;SDS011;55596;53.554;9.916;2023-05-09T14:08:26;12.88;;;2.20;;
17796;SDS011;55596;53.554;9.916;2023-05-09T14:10:54;4.35;;;1.92;;
17796;SDS011;55596;53.554;9.916;2023-05-09T14:13:22;6.20;;;1.83;;
17796;SDS011;55596;53.554;9.916;2023-05-09T14:15:49;5.85;;;1.83;;
17796;SDS011;55596;53.554;9.916;2023-05-09T14:18:17;4.55;;;2.05;;
17796;SDS011;55596;53.554;9.916;2023-05-09T14:20:48;3.03;;;2.00;;
17796;SDS011;55596;53.554;9.916;2023-05-09T14:23:19;7.53;;;2.03;;
17796;SDS011;55596;53.554;9.916;2023-05-09T14:25:46;4.55;;;2.10;;
17796;SDS011;55596;53.554;9.916;2023-05-09T14:28:14;5.20;;;2.13;;
17796;SDS011;55596;53.554;9.916;2023-05-09T14:30:42;7.22;;;2.08;;
17796;SDS011;55596;53.554;9.916;2023-05-09T14:33:09;6.60;;;2.00;;
17796;SDS011;55596;53.554;9.916;2023-05-09T14:35:40;4.63;;;1.80;;
17796;SDS011;55596;53.554;9.916;2023-05-09T14:38:08;3.55;;;1.83;;
17796;SDS011;55596;53.554;9.916;2023-05-09T14:40:41;4.53;;;2.10;;
17796;SDS011;55596;53.554;9.916;2023-05-09T14:43:08;3.75;;;1.77;;
17796;SDS011;55596;53.554;9.916;2023-05-09T14:45:36;2.90;;;2.00;;
17796;SDS011;55596;53.554;9.916;2023-05-09T14:48:09;4.05;;;1.60;;
17796;SDS011;55596;53.554;9.916;2023-05-09T14:50:42;6.28;;;1.88;;
17796;SDS011;55596;53.554;9.916;2023-05-09T14:53:11;3.88;;;1.90;;
17796;SDS011;55596;53.554;9.916;2023-05-09T14:55:47;6.82;;;2.00;;
17796;SDS011;55596;53.554;9.916;2023-05-09T14:58:16;7.20;;;1.60;;
17796;SDS011;55596;53.554;9.916;2023-05-09T15:00:44;7.18;;;1.95;;
17796;SDS011;55596;53.554;9.916;2023-05-09T15:03:16;6.43;;;2.10;;
17796;SDS011;55596;53.554;9.916;2023-05-09T15:05:48;7.13;;;1.73;;
17796;SDS011;55596;53.554;9.916;2023-05-09T15:08:17;10.38;;;2.03;;
17796;SDS011;55596;53.554;9.916;2023-05-09T15:10:44;8.05;;;1.90;;
17796;SDS011;55596;53.554;9.916;2023-05-09T15:13:14;5.50;;;2.10;;
17796;SDS011;55596;53.554;9.916;2023-05-09T15:15:44;9.52;;;2.15;;
17796;SDS011;55596;53.554;9.916;2023-05-09T15:18:15;4.15;;;1.65;;
17796;SDS011;55596;53.554;9.916;2023-05-09T15:20:50;3.25;;;1.63;;
17796;SDS011;55596;53.554;9.916;2023-05-09T15:23:21;11.02;;;1.83;;
17796;SDS011;55596;53.554;9.916;2023-05-09T15:25:51;4.55;;;1.83;;
17796;SDS011;55596;53.554;9.916;2023-05-09T15:28:22;4.18;;;1.85;;